sensor_id;sensor_type;location;lat;lon;timestamp;temperature;humidity
51878;SHT31;37911;51.526;11.536;2022-10-20T00:01:09;4.48;84.53
51878;SHT31;37911;51.526;11.536;2022-10-20T00:04:12;4.45;84.74
51878;SHT31;37911;51.526;11.536;2022-10-20T00:07:18;4.45;84.75
51878;SHT31;37911;51.526;11.536;2022-10-20T00:10:22;4.45;84.71
51878;SHT31;37911;51.526;11.536;2022-10-20T00:13:25;4.41;84.32
51878;SHT31;37911;51.526;11.536;2022-10-20T00:16:31;4.36;83.84
51878;SHT31;37911;51.526;11.536;2022-10-20T00:19:36;4.33;83.72
51878;SHT31;37911;51.526;11.536;2022-10-20T00:22:42;4.22;83.81
51878;SHT31;37911;51.526;11.536;2022-10-20T00:25:46;4.18;83.96
51878;SHT31;37911;51.526;11.536;2022-10-20T00:28:50;4.06;84.36
51878;SHT31;37911;51.526;11.536;2022-10-20T00:31:53;4.09;84.84
51878;SHT31;37911;51.526;11.536;2022-10-20T00:34:57;4.16;85.08
51878;SHT31;37911;51.526;11.536;2022-10-20T00:38:03;4.20;84.87
51878;SHT31;37911;51.526;11.536;2022-10-20T00:41:06;4.13;84.60
51878;SHT31;37911;51.526;11.536;2022-10-20T00:47:46;4.17;84.53
51878;SHT31;37911;51.526;11.536;2022-10-20T00:50:53;4.11;84.36
51878;SHT31;37911;51.526;11.536;2022-10-20T00:54:03;4.07;84.61
51878;SHT31;37911;51.526;11.536;2022-10-20T00:57:07;4.04;85.07
51878;SHT31;37911;51.526;11.536;2022-10-20T01:00:12;4.00;85.23
51878;SHT31;37911;51.526;11.536;2022-10-20T01:03:23;3.97;85.54
51878;SHT31;37911;51.526;11.536;2022-10-20T01:06:27;3.99;85.37
51878;SHT31;37911;51.526;11.536;2022-10-20T01:09:34;3.96;85.01
51878;SHT31;37911;51.526;11.536;2022-10-20T01:12:45;3.89;84.82
51878;SHT31;37911;51.526;11.536;2022-10-20T01:15:57;3.83;84.84
51878;SHT31;37911;51.526;11.536;2022-10-20T01:19:13;3.82;84.80
51878;SHT31;37911;51.526;11.536;2022-10-20T01:22:35;3.75;84.94
51878;SHT31;37911;51.526;11.536;2022-10-20T01:25:57;3.82;84.85
51878;SHT31;37911;51.526;11.536;2022-10-20T01:29:11;3.69;84.84
51878;SHT31;37911;51.526;11.536;2022-10-20T01:32:20;3.72;84.38
51878;SHT31;37911;51.526;11.536;2022-10-20T01:35:32;3.79;84.04
51878;SHT31;37911;51.526;11.536;2022-10-20T01:38:39;3.72;83.93
51878;SHT31;37911;51.526;11.536;2022-10-20T01:41:49;3.66;83.73
51878;SHT31;37911;51.526;11.536;2022-10-20T01:44:59;3.59;83.91
51878;SHT31;37911;51.526;11.536;2022-10-20T01:48:06;3.52;84.35
51878;SHT31;37911;51.526;11.536;2022-10-20T01:51:12;3.51;84.78
51878;SHT31;37911;51.526;11.536;2022-10-20T01:54:23;3.49;85.32
51878;SHT31;37911;51.526;11.536;2022-10-20T01:57:40;3.56;85.68
51878;SHT31;37911;51.526;11.536;2022-10-20T02:00:49;3.58;85.84
51878;SHT31;37911;51.526;11.536;2022-10-20T02:03:55;3.58;85.62
51878;SHT31;37911;51.526;11.536;2022-10-20T02:07:04;3.60;85.43
51878;SHT31;37911;51.526;11.536;2022-10-20T02:10:13;3.58;85.68
51878;SHT31;37911;51.526;11.536;2022-10-20T02:13:20;3.56;85.64
51878;SHT31;37911;51.526;11.536;2022-10-20T02:16:29;3.63;85.33
51878;SHT31;37911;51.526;11.536;2022-10-20T02:19:38;3.55;84.98
51878;SHT31;37911;51.526;11.536;2022-10-20T02:22:42;3.51;84.64
51878;SHT31;37911;51.526;11.536;2022-10-20T02:25:48;3.36;84.83
51878;SHT31;37911;51.526;11.536;2022-10-20T02:28:56;3.38;85.07
51878;SHT31;37911;51.526;11.536;2022-10-20T02:32:05;3.40;85.35
51878;SHT31;37911;51.526;11.536;2022-10-20T02:35:12;3.34;84.74
51878;SHT31;37911;51.526;11.536;2022-10-20T02:38:16;3.34;84.70
51878;SHT31;37911;51.526;11.536;2022-10-20T02:41:20;3.35;84.79
51878;SHT31;37911;51.526;11.536;2022-10-20T02:44:23;3.39;84.62
51878;SHT31;37911;51.526;11.536;2022-10-20T02:47:31;3.32;84.43
51878;SHT31;37911;51.526;11.536;2022-10-20T02:50:35;3.25;84.39
51878;SHT31;37911;51.526;11.536;2022-10-20T02:53:39;3.25;84.76
51878;SHT31;37911;51.526;11.536;2022-10-20T02:56:42;3.25;84.82
51878;SHT31;37911;51.526;11.536;2022-10-20T02:59:46;3.15;84.91
51878;SHT31;37911;51.526;11.536;2022-10-20T03:02:52;3.16;85.30
51878;SHT31;37911;51.526;11.536;2022-10-20T03:05:55;3.08;85.52
51878;SHT31;37911;51.526;11.536;2022-10-20T03:08:59;3.05;85.54
51878;SHT31;37911;51.526;11.536;2022-10-20T03:12:03;3.11;85.04
51878;SHT31;37911;51.526;11.536;2022-10-20T03:15:07;3.07;84.98
51878;SHT31;37911;51.526;11.536;2022-10-20T03:18:13;3.04;84.83
51878;SHT31;37911;51.526;11.536;2022-10-20T03:21:17;3.02;85.15
51878;SHT31;37911;51.526;11.536;2022-10-20T03:24:20;3.08;84.97
51878;SHT31;37911;51.526;11.536;2022-10-20T03:27:25;3.00;85.12
51878;SHT31;37911;51.526;11.536;2022-10-20T03:30:28;3.02;85.22
51878;SHT31;37911;51.526;11.536;2022-10-20T03:33:34;3.01;85.43
51878;SHT31;37911;51.526;11.536;2022-10-20T03:36:38;3.07;85.00
51878;SHT31;37911;51.526;11.536;2022-10-20T03:39:41;3.02;84.75
51878;SHT31;37911;51.526;11.536;2022-10-20T03:42:45;3.01;84.78
51878;SHT31;37911;51.526;11.536;2022-10-20T03:45:48;2.94;84.50
51878;SHT31;37911;51.526;11.536;2022-10-20T03:48:55;2.85;84.00
51878;SHT31;37911;51.526;11.536;2022-10-20T03:51:58;2.80;83.72
51878;SHT31;37911;51.526;11.536;2022-10-20T03:55:02;2.76;84.23
51878;SHT31;37911;51.526;11.536;2022-10-20T03:58:06;2.77;84.47
51878;SHT31;37911;51.526;11.536;2022-10-20T04:01:12;2.74;84.75
51878;SHT31;37911;51.526;11.536;2022-10-20T04:04:19;2.73;84.81
51878;SHT31;37911;51.526;11.536;2022-10-20T04:07:22;2.61;84.92
51878;SHT31;37911;51.526;11.536;2022-10-20T04:10:26;2.57;85.22
51878;SHT31;37911;51.526;11.536;2022-10-20T04:13:29;2.65;85.14
51878;SHT31;37911;51.526;11.536;2022-10-20T04:16:33;2.60;85.00
51878;SHT31;37911;51.526;11.536;2022-10-20T04:19:39;2.60;84.90
51878;SHT31;37911;51.526;11.536;2022-10-20T04:22:42;2.61;84.91
51878;SHT31;37911;51.526;11.536;2022-10-20T04:25:46;2.50;85.00
51878;SHT31;37911;51.526;11.536;2022-10-20T04:28:49;2.49;85.20
51878;SHT31;37911;51.526;11.536;2022-10-20T04:31:53;2.51;85.34
51878;SHT31;37911;51.526;11.536;2022-10-20T04:34:59;2.50;84.82
51878;SHT31;37911;51.526;11.536;2022-10-20T04:38:03;2.40;84.90
51878;SHT31;37911;51.526;11.536;2022-10-20T04:41:06;2.50;84.80
51878;SHT31;37911;51.526;11.536;2022-10-20T04:44:10;2.49;84.90
51878;SHT31;37911;51.526;11.536;2022-10-20T04:47:14;2.49;85.23
51878;SHT31;37911;51.526;11.536;2022-10-20T04:50:20;2.47;85.12
51878;SHT31;37911;51.526;11.536;2022-10-20T04:53:40;2.39;84.98
51878;SHT31;37911;51.526;11.536;2022-10-20T04:56:43;2.40;84.62
51878;SHT31;37911;51.526;11.536;2022-10-20T04:59:47;2.36;84.95
51878;SHT31;37911;51.526;11.536;2022-10-20T05:02:50;2.36;84.61
51878;SHT31;37911;51.526;11.536;2022-10-20T05:06:06;2.40;84.63
51878;SHT31;37911;51.526;11.536;2022-10-20T05:09:10;2.33;84.51
51878;SHT31;37911;51.526;11.536;2022-10-20T05:12:13;2.26;85.19
51878;SHT31;37911;51.526;11.536;2022-10-20T05:15:17;2.34;85.07
51878;SHT31;37911;51.526;11.536;2022-10-20T05:18:20;2.25;84.92
51878;SHT31;37911;51.526;11.536;2022-10-20T05:21:29;2.29;85.17
51878;SHT31;37911;51.526;11.536;2022-10-20T05:24:32;2.27;85.20
51878;SHT31;37911;51.526;11.536;2022-10-20T05:27:36;2.33;84.98
51878;SHT31;37911;51.526;11.536;2022-10-20T05:30:40;2.30;85.03
51878;SHT31;37911;51.526;11.536;2022-10-20T05:33:45;2.36;84.75
51878;SHT31;37911;51.526;11.536;2022-10-20T05:36:53;2.33;84.98
51878;SHT31;37911;51.526;11.536;2022-10-20T05:39:58;2.34;85.61
51878;SHT31;37911;51.526;11.536;2022-10-20T05:43:03;2.39;86.06
51878;SHT31;37911;51.526;11.536;2022-10-20T05:46:07;2.44;86.34
51878;SHT31;37911;51.526;11.536;2022-10-20T05:49:12;2.53;86.54
51878;SHT31;37911;51.526;11.536;2022-10-20T05:52:19;2.50;86.64
51878;SHT31;37911;51.526;11.536;2022-10-20T05:55:23;2.61;86.66
51878;SHT31;37911;51.526;11.536;2022-10-20T05:58:28;2.61;86.75
51878;SHT31;37911;51.526;11.536;2022-10-20T06:01:32;2.61;87.44
51878;SHT31;37911;51.526;11.536;2022-10-20T06:04:47;2.70;87.68
51878;SHT31;37911;51.526;11.536;2022-10-20T06:07:54;2.68;87.97
51878;SHT31;37911;51.526;11.536;2022-10-20T06:11:05;2.79;88.16
51878;SHT31;37911;51.526;11.536;2022-10-20T06:14:08;2.87;88.48
51878;SHT31;37911;51.526;11.536;2022-10-20T06:17:16;2.94;88.58
51878;SHT31;37911;51.526;11.536;2022-10-20T06:20:20;3.01;88.89
51878;SHT31;37911;51.526;11.536;2022-10-20T06:23:26;3.09;89.18
51878;SHT31;37911;51.526;11.536;2022-10-20T06:26:31;3.07;89.72
51878;SHT31;37911;51.526;11.536;2022-10-20T06:29:36;3.16;90.05
51878;SHT31;37911;51.526;11.536;2022-10-20T06:32:39;3.21;90.38
51878;SHT31;37911;51.526;11.536;2022-10-20T06:35:42;3.32;90.77
51878;SHT31;37911;51.526;11.536;2022-10-20T06:38:52;3.46;90.99
51878;SHT31;37911;51.526;11.536;2022-10-20T06:41:56;3.63;91.18
51878;SHT31;37911;51.526;11.536;2022-10-20T06:45:06;3.82;91.04
51878;SHT31;37911;51.526;11.536;2022-10-20T06:48:10;3.93;91.24
51878;SHT31;37911;51.526;11.536;2022-10-20T06:51:15;4.04;91.28
51878;SHT31;37911;51.526;11.536;2022-10-20T06:54:29;4.14;91.33
51878;SHT31;37911;51.526;11.536;2022-10-20T06:57:33;4.20;91.30
51878;SHT31;37911;51.526;11.536;2022-10-20T07:00:36;4.20;91.14
51878;SHT31;37911;51.526;11.536;2022-10-20T07:03:44;4.28;91.19
51878;SHT31;37911;51.526;11.536;2022-10-20T07:06:48;4.45;91.13
51878;SHT31;37911;51.526;11.536;2022-10-20T07:09:54;4.52;90.94
51878;SHT31;37911;51.526;11.536;2022-10-20T07:12:59;4.52;90.70
51878;SHT31;37911;51.526;11.536;2022-10-20T07:16:05;4.65;90.73
51878;SHT31;37911;51.526;11.536;2022-10-20T07:19:08;4.75;90.78
51878;SHT31;37911;51.526;11.536;2022-10-20T07:22:12;4.88;90.56
51878;SHT31;37911;51.526;11.536;2022-10-20T07:25:19;5.03;90.23
51878;SHT31;37911;51.526;11.536;2022-10-20T07:28:23;5.06;89.75
51878;SHT31;37911;51.526;11.536;2022-10-20T07:31:29;5.06;89.30
51878;SHT31;37911;51.526;11.536;2022-10-20T07:34:35;5.11;89.34
51878;SHT31;37911;51.526;11.536;2022-10-20T07:37:39;5.16;89.20
51878;SHT31;37911;51.526;11.536;2022-10-20T07:40:45;5.19;88.92
51878;SHT31;37911;51.526;11.536;2022-10-20T07:43:48;5.25;89.11
51878;SHT31;37911;51.526;11.536;2022-10-20T07:46:52;5.36;88.52
51878;SHT31;37911;51.526;11.536;2022-10-20T07:49:55;5.39;88.58
51878;SHT31;37911;51.526;11.536;2022-10-20T07:52:59;5.48;88.38
51878;SHT31;37911;51.526;11.536;2022-10-20T07:56:05;5.66;88.38
51878;SHT31;37911;51.526;11.536;2022-10-20T07:59:09;6.04;88.07
51878;SHT31;37911;51.526;11.536;2022-10-20T08:02:13;6.57;86.59
51878;SHT31;37911;51.526;11.536;2022-10-20T08:05:17;7.01;84.40
51878;SHT31;37911;51.526;11.536;2022-10-20T08:08:22;7.54;82.66
51878;SHT31;37911;51.526;11.536;2022-10-20T08:11:28;7.88;80.40
51878;SHT31;37911;51.526;11.536;2022-10-20T08:14:32;8.23;78.80
51878;SHT31;37911;51.526;11.536;2022-10-20T08:17:37;8.34;78.90
51878;SHT31;37911;51.526;11.536;2022-10-20T08:20:41;8.57;78.06
51878;SHT31;37911;51.526;11.536;2022-10-20T08:23:46;8.54;78.06
51878;SHT31;37911;51.526;11.536;2022-10-20T08:26:53;8.60;76.95
51878;SHT31;37911;51.526;11.536;2022-10-20T08:29:56;8.68;76.01
51878;SHT31;37911;51.526;11.536;2022-10-20T08:33:00;8.74;77.21
51878;SHT31;37911;51.526;11.536;2022-10-20T08:36:06;8.77;76.75
51878;SHT31;37911;51.526;11.536;2022-10-20T08:39:10;9.10;76.33
51878;SHT31;37911;51.526;11.536;2022-10-20T08:42:16;8.97;76.35
51878;SHT31;37911;51.526;11.536;2022-10-20T08:45:21;9.24;75.32
51878;SHT31;37911;51.526;11.536;2022-10-20T08:48:31;9.48;74.36
51878;SHT31;37911;51.526;11.536;2022-10-20T08:51:36;9.56;74.22
51878;SHT31;37911;51.526;11.536;2022-10-20T08:54:40;9.51;75.05
51878;SHT31;37911;51.526;11.536;2022-10-20T08:57:47;9.70;74.25
51878;SHT31;37911;51.526;11.536;2022-10-20T09:00:55;9.83;74.09
51878;SHT31;37911;51.526;11.536;2022-10-20T09:04:17;10.21;73.27
51878;SHT31;37911;51.526;11.536;2022-10-20T09:07:25;10.32;72.34
51878;SHT31;37911;51.526;11.536;2022-10-20T09:10:32;10.07;72.93
51878;SHT31;37911;51.526;11.536;2022-10-20T09:13:40;9.94;73.76
51878;SHT31;37911;51.526;11.536;2022-10-20T09:16:44;9.70;74.46
51878;SHT31;37911;51.526;11.536;2022-10-20T09:19:52;10.25;73.22
51878;SHT31;37911;51.526;11.536;2022-10-20T09:22:58;10.74;71.72
51878;SHT31;37911;51.526;11.536;2022-10-20T09:26:02;10.92;69.91
51878;SHT31;37911;51.526;11.536;2022-10-20T09:29:11;10.98;70.79
51878;SHT31;37911;51.526;11.536;2022-10-20T09:32:20;11.23;71.34
51878;SHT31;37911;51.526;11.536;2022-10-20T09:35:35;11.74;70.08
51878;SHT31;37911;51.526;11.536;2022-10-20T09:38:42;11.79;69.45
51878;SHT31;37911;51.526;11.536;2022-10-20T09:41:47;11.98;68.91
51878;SHT31;37911;51.526;11.536;2022-10-20T09:44:56;12.05;68.85
51878;SHT31;37911;51.526;11.536;2022-10-20T09:48:05;12.03;68.94
51878;SHT31;37911;51.526;11.536;2022-10-20T09:51:13;12.00;68.76
51878;SHT31;37911;51.526;11.536;2022-10-20T09:54:21;12.35;68.12
51878;SHT31;37911;51.526;11.536;2022-10-20T09:57:25;12.82;66.92
51878;SHT31;37911;51.526;11.536;2022-10-20T10:00:34;12.75;66.61
51878;SHT31;37911;51.526;11.536;2022-10-20T10:03:39;12.79;66.43
51878;SHT31;37911;51.526;11.536;2022-10-20T10:06:44;12.55;66.62
51878;SHT31;37911;51.526;11.536;2022-10-20T10:09:54;12.66;67.34
51878;SHT31;37911;51.526;11.536;2022-10-20T10:13:00;12.99;65.93
51878;SHT31;37911;51.526;11.536;2022-10-20T10:16:09;12.85;63.79
51878;SHT31;37911;51.526;11.536;2022-10-20T10:19:17;12.95;65.79
51878;SHT31;37911;51.526;11.536;2022-10-20T10:22:21;13.13;65.29
51878;SHT31;37911;51.526;11.536;2022-10-20T10:25:26;12.96;63.85
51878;SHT31;37911;51.526;11.536;2022-10-20T10:28:34;13.30;63.55
51878;SHT31;37911;51.526;11.536;2022-10-20T10:31:48;13.44;62.92
51878;SHT31;37911;51.526;11.536;2022-10-20T10:35:02;13.29;63.46
51878;SHT31;37911;51.526;11.536;2022-10-20T10:38:08;13.57;62.32
51878;SHT31;37911;51.526;11.536;2022-10-20T10:41:18;13.73;60.94
51878;SHT31;37911;51.526;11.536;2022-10-20T10:44:32;13.91;60.95
51878;SHT31;37911;51.526;11.536;2022-10-20T10:48:04;14.00;59.93
51878;SHT31;37911;51.526;11.536;2022-10-20T10:51:19;13.97;60.86
51878;SHT31;37911;51.526;11.536;2022-10-20T10:54:37;14.35;59.97
51878;SHT31;37911;51.526;11.536;2022-10-20T10:57:54;14.48;58.94
51878;SHT31;37911;51.526;11.536;2022-10-20T11:01:05;14.42;59.54
51878;SHT31;37911;51.526;11.536;2022-10-20T11:04:32;14.39;57.67
51878;SHT31;37911;51.526;11.536;2022-10-20T11:07:42;14.64;56.40
51878;SHT31;37911;51.526;11.536;2022-10-20T11:10:55;14.85;56.22
51878;SHT31;37911;51.526;11.536;2022-10-20T11:14:12;14.83;55.41
51878;SHT31;37911;51.526;11.536;2022-10-20T11:17:29;14.75;55.61
51878;SHT31;37911;51.526;11.536;2022-10-20T11:20:44;15.03;56.30
51878;SHT31;37911;51.526;11.536;2022-10-20T11:24:10;14.77;56.06
51878;SHT31;37911;51.526;11.536;2022-10-20T11:27:22;14.95;56.52
51878;SHT31;37911;51.526;11.536;2022-10-20T11:30:28;14.80;56.52
51878;SHT31;37911;51.526;11.536;2022-10-20T11:33:38;14.71;58.85
51878;SHT31;37911;51.526;11.536;2022-10-20T11:36:51;14.85;56.96
51878;SHT31;37911;51.526;11.536;2022-10-20T11:40:02;15.19;56.24
51878;SHT31;37911;51.526;11.536;2022-10-20T11:43:13;15.09;56.43
51878;SHT31;37911;51.526;11.536;2022-10-20T11:46:22;15.10;56.59
51878;SHT31;37911;51.526;11.536;2022-10-20T11:49:27;15.23;55.79
51878;SHT31;37911;51.526;11.536;2022-10-20T11:53:02;15.22;54.12
51878;SHT31;37911;51.526;11.536;2022-10-20T12:00:20;15.41;54.44
51878;SHT31;37911;51.526;11.536;2022-10-20T12:07:36;15.26;55.00
51878;SHT31;37911;51.526;11.536;2022-10-20T12:10:53;15.06;53.54
51878;SHT31;37911;51.526;11.536;2022-10-20T12:14:02;14.96;54.35
51878;SHT31;37911;51.526;11.536;2022-10-20T12:17:17;14.97;55.24
51878;SHT31;37911;51.526;11.536;2022-10-20T12:24:37;14.92;55.70
51878;SHT31;37911;51.526;11.536;2022-10-20T12:27:41;14.90;55.48
51878;SHT31;37911;51.526;11.536;2022-10-20T12:30:52;14.93;55.72
51878;SHT31;37911;51.526;11.536;2022-10-20T12:34:00;15.03;55.34
51878;SHT31;37911;51.526;11.536;2022-10-20T12:37:06;15.11;55.48
51878;SHT31;37911;51.526;11.536;2022-10-20T12:40:25;15.20;55.35
51878;SHT31;37911;51.526;11.536;2022-10-20T12:43:35;15.37;54.67
51878;SHT31;37911;51.526;11.536;2022-10-20T12:46:52;15.26;55.26
51878;SHT31;37911;51.526;11.536;2022-10-20T12:49:59;15.43;55.18
51878;SHT31;37911;51.526;11.536;2022-10-20T12:53:11;15.24;54.67
51878;SHT31;37911;51.526;11.536;2022-10-20T12:56:19;15.53;54.16
51878;SHT31;37911;51.526;11.536;2022-10-20T12:59:44;15.39;53.58
51878;SHT31;37911;51.526;11.536;2022-10-20T13:02:51;15.60;53.95
51878;SHT31;37911;51.526;11.536;2022-10-20T13:05:55;15.72;54.46
51878;SHT31;37911;51.526;11.536;2022-10-20T13:09:25;15.71;52.79
51878;SHT31;37911;51.526;11.536;2022-10-20T13:12:38;15.44;52.80
51878;SHT31;37911;51.526;11.536;2022-10-20T13:15:43;15.47;53.93
51878;SHT31;37911;51.526;11.536;2022-10-20T13:18:48;15.64;53.53
51878;SHT31;37911;51.526;11.536;2022-10-20T13:21:52;15.80;53.45
51878;SHT31;37911;51.526;11.536;2022-10-20T13:24:57;16.01;53.47
51878;SHT31;37911;51.526;11.536;2022-10-20T13:28:14;16.05;52.28
51878;SHT31;37911;51.526;11.536;2022-10-20T13:31:22;16.18;52.63
51878;SHT31;37911;51.526;11.536;2022-10-20T13:34:32;16.23;52.46
51878;SHT31;37911;51.526;11.536;2022-10-20T13:37:51;16.15;52.73
51878;SHT31;37911;51.526;11.536;2022-10-20T13:41:01;15.72;54.02
51878;SHT31;37911;51.526;11.536;2022-10-20T13:44:24;15.57;55.74
51878;SHT31;37911;51.526;11.536;2022-10-20T13:47:44;15.26;56.23
51878;SHT31;37911;51.526;11.536;2022-10-20T13:50:52;15.02;57.30
51878;SHT31;37911;51.526;11.536;2022-10-20T13:53:58;14.92;57.93
51878;SHT31;37911;51.526;11.536;2022-10-20T13:57:03;14.79;58.97
51878;SHT31;37911;51.526;11.536;2022-10-20T14:00:20;14.62;59.25
51878;SHT31;37911;51.526;11.536;2022-10-20T14:03:24;14.45;60.40
51878;SHT31;37911;51.526;11.536;2022-10-20T14:06:32;14.41;61.19
51878;SHT31;37911;51.526;11.536;2022-10-20T14:09:36;14.35;62.00
51878;SHT31;37911;51.526;11.536;2022-10-20T14:12:39;14.29;62.71
51878;SHT31;37911;51.526;11.536;2022-10-20T14:15:48;14.22;63.24
51878;SHT31;37911;51.526;11.536;2022-10-20T14:19:00;14.18;63.67
51878;SHT31;37911;51.526;11.536;2022-10-20T14:22:15;14.08;64.44
51878;SHT31;37911;51.526;11.536;2022-10-20T14:25:21;14.01;64.72
51878;SHT31;37911;51.526;11.536;2022-10-20T14:28:27;14.01;65.30
51878;SHT31;37911;51.526;11.536;2022-10-20T14:31:35;13.94;65.58
51878;SHT31;37911;51.526;11.536;2022-10-20T14:34:53;13.84;66.02
51878;SHT31;37911;51.526;11.536;2022-10-20T14:37:59;13.81;66.01
51878;SHT31;37911;51.526;11.536;2022-10-20T14:41:05;13.84;66.29
51878;SHT31;37911;51.526;11.536;2022-10-20T14:44:18;13.85;66.30
51878;SHT31;37911;51.526;11.536;2022-10-20T14:47:27;13.82;66.54
51878;SHT31;37911;51.526;11.536;2022-10-20T14:50:36;13.84;66.71
51878;SHT31;37911;51.526;11.536;2022-10-20T14:53:40;13.80;66.80
51878;SHT31;37911;51.526;11.536;2022-10-20T14:56:45;13.78;66.92
51878;SHT31;37911;51.526;11.536;2022-10-20T14:59:52;13.74;67.17
51878;SHT31;37911;51.526;11.536;2022-10-20T15:03:05;13.73;67.49
51878;SHT31;37911;51.526;11.536;2022-10-20T15:06:11;13.69;67.57
51878;SHT31;37911;51.526;11.536;2022-10-20T15:09:19;13.70;67.73
51878;SHT31;37911;51.526;11.536;2022-10-20T15:12:30;13.63;68.08
51878;SHT31;37911;51.526;11.536;2022-10-20T15:15:37;13.60;68.31
51878;SHT31;37911;51.526;11.536;2022-10-20T15:18:44;13.54;68.40
51878;SHT31;37911;51.526;11.536;2022-10-20T15:21:48;13.46;69.04
51878;SHT31;37911;51.526;11.536;2022-10-20T15:24:52;13.49;68.66
51878;SHT31;37911;51.526;11.536;2022-10-20T15:27:56;13.43;69.33
51878;SHT31;37911;51.526;11.536;2022-10-20T15:31:01;13.35;69.86
51878;SHT31;37911;51.526;11.536;2022-10-20T15:34:10;13.26;70.30
51878;SHT31;37911;51.526;11.536;2022-10-20T15:37:14;13.18;70.57
51878;SHT31;37911;51.526;11.536;2022-10-20T15:40:19;13.15;70.94
51878;SHT31;37911;51.526;11.536;2022-10-20T15:43:24;13.12;71.14
51878;SHT31;37911;51.526;11.536;2022-10-20T15:46:28;13.03;71.39
51878;SHT31;37911;51.526;11.536;2022-10-20T15:49:35;13.05;71.67
51878;SHT31;37911;51.526;11.536;2022-10-20T15:52:39;12.93;72.09
51878;SHT31;37911;51.526;11.536;2022-10-20T15:55:44;12.91;72.32
51878;SHT31;37911;51.526;11.536;2022-10-20T15:58:48;12.89;72.36
51878;SHT31;37911;51.526;11.536;2022-10-20T16:01:52;12.86;72.40
51878;SHT31;37911;51.526;11.536;2022-10-20T16:04:59;12.85;72.37
51878;SHT31;37911;51.526;11.536;2022-10-20T16:08:03;12.78;72.72
51878;SHT31;37911;51.526;11.536;2022-10-20T16:11:07;12.74;72.99
51878;SHT31;37911;51.526;11.536;2022-10-20T16:14:10;12.65;73.63
51878;SHT31;37911;51.526;11.536;2022-10-20T16:17:15;12.54;74.21
51878;SHT31;37911;51.526;11.536;2022-10-20T16:20:21;12.37;74.89
51878;SHT31;37911;51.526;11.536;2022-10-20T16:23:25;12.25;75.17
51878;SHT31;37911;51.526;11.536;2022-10-20T16:26:29;12.20;75.63
51878;SHT31;37911;51.526;11.536;2022-10-20T16:29:33;12.04;76.02
51878;SHT31;37911;51.526;11.536;2022-10-20T16:32:36;12.01;76.60
51878;SHT31;37911;51.526;11.536;2022-10-20T16:35:43;11.94;76.52
51878;SHT31;37911;51.526;11.536;2022-10-20T16:38:53;11.90;76.68
51878;SHT31;37911;51.526;11.536;2022-10-20T16:41:58;11.81;76.85
51878;SHT31;37911;51.526;11.536;2022-10-20T16:45:03;11.77;77.22
51878;SHT31;37911;51.526;11.536;2022-10-20T16:48:10;11.67;77.60
51878;SHT31;37911;51.526;11.536;2022-10-20T16:51:19;11.65;77.77
51878;SHT31;37911;51.526;11.536;2022-10-20T16:54:23;11.56;78.03
51878;SHT31;37911;51.526;11.536;2022-10-20T16:57:26;11.50;78.19
51878;SHT31;37911;51.526;11.536;2022-10-20T17:00:37;11.55;78.38
51878;SHT31;37911;51.526;11.536;2022-10-20T17:03:44;11.53;78.46
51878;SHT31;37911;51.526;11.536;2022-10-20T17:06:51;11.44;78.50
51878;SHT31;37911;51.526;11.536;2022-10-20T17:09:54;11.44;78.67
51878;SHT31;37911;51.526;11.536;2022-10-20T17:12:59;11.30;79.00
51878;SHT31;37911;51.526;11.536;2022-10-20T17:16:04;11.20;79.37
51878;SHT31;37911;51.526;11.536;2022-10-20T17:19:08;11.15;79.61
51878;SHT31;37911;51.526;11.536;2022-10-20T17:22:14;11.09;80.13
51878;SHT31;37911;51.526;11.536;2022-10-20T17:25:20;11.07;80.42
51878;SHT31;37911;51.526;11.536;2022-10-20T17:28:24;11.04;80.52
51878;SHT31;37911;51.526;11.536;2022-10-20T17:31:28;10.99;80.59
51878;SHT31;37911;51.526;11.536;2022-10-20T17:34:32;10.98;80.77
51878;SHT31;37911;51.526;11.536;2022-10-20T17:37:40;10.94;80.90
51878;SHT31;37911;51.526;11.536;2022-10-20T17:40:44;10.97;80.99
51878;SHT31;37911;51.526;11.536;2022-10-20T17:43:47;10.95;80.88
51878;SHT31;37911;51.526;11.536;2022-10-20T17:46:51;10.92;80.93
51878;SHT31;37911;51.526;11.536;2022-10-20T17:49:57;11.01;81.15
51878;SHT31;37911;51.526;11.536;2022-10-20T17:53:04;11.14;80.82
51878;SHT31;37911;51.526;11.536;2022-10-20T17:56:16;11.07;80.82
51878;SHT31;37911;51.526;11.536;2022-10-20T17:59:20;11.01;81.23
51878;SHT31;37911;51.526;11.536;2022-10-20T18:02:24;10.97;81.26
51878;SHT31;37911;51.526;11.536;2022-10-20T18:05:28;10.97;81.36
51878;SHT31;37911;51.526;11.536;2022-10-20T18:08:34;10.94;81.65
51878;SHT31;37911;51.526;11.536;2022-10-20T18:11:40;10.87;81.95
51878;SHT31;37911;51.526;11.536;2022-10-20T18:14:45;10.81;82.40
51878;SHT31;37911;51.526;11.536;2022-10-20T18:17:48;10.79;82.61
51878;SHT31;37911;51.526;11.536;2022-10-20T18:20:53;10.79;82.70
51878;SHT31;37911;51.526;11.536;2022-10-20T18:24:02;10.78;82.67
51878;SHT31;37911;51.526;11.536;2022-10-20T18:27:06;10.79;82.66
51878;SHT31;37911;51.526;11.536;2022-10-20T18:30:10;10.78;82.73
51878;SHT31;37911;51.526;11.536;2022-10-20T18:33:14;10.77;82.91
51878;SHT31;37911;51.526;11.536;2022-10-20T18:36:19;10.75;82.78
51878;SHT31;37911;51.526;11.536;2022-10-20T18:39:25;10.77;82.78
51878;SHT31;37911;51.526;11.536;2022-10-20T18:42:32;10.77;82.75
51878;SHT31;37911;51.526;11.536;2022-10-20T18:45:35;10.71;82.73
51878;SHT31;37911;51.526;11.536;2022-10-20T18:48:41;10.69;82.80
51878;SHT31;37911;51.526;11.536;2022-10-20T18:51:44;10.74;82.89
51878;SHT31;37911;51.526;11.536;2022-10-20T18:54:52;10.78;82.92
51878;SHT31;37911;51.526;11.536;2022-10-20T18:57:56;10.79;82.99
51878;SHT31;37911;51.526;11.536;2022-10-20T19:01:02;10.82;83.12
51878;SHT31;37911;51.526;11.536;2022-10-20T19:04:08;10.84;83.30
51878;SHT31;37911;51.526;11.536;2022-10-20T19:07:11;10.84;83.81
51878;SHT31;37911;51.526;11.536;2022-10-20T19:10:20;10.82;83.74
51878;SHT31;37911;51.526;11.536;2022-10-20T19:13:24;10.82;83.75
51878;SHT31;37911;51.526;11.536;2022-10-20T19:16:30;10.91;84.02
51878;SHT31;37911;51.526;11.536;2022-10-20T19:19:33;10.88;84.52
51878;SHT31;37911;51.526;11.536;2022-10-20T19:22:37;10.84;85.29
51878;SHT31;37911;51.526;11.536;2022-10-20T19:25:46;10.82;85.65
51878;SHT31;37911;51.526;11.536;2022-10-20T19:28:52;10.81;85.72
51878;SHT31;37911;51.526;11.536;2022-10-20T19:31:57;10.81;86.19
51878;SHT31;37911;51.526;11.536;2022-10-20T19:35:01;10.84;86.00
51878;SHT31;37911;51.526;11.536;2022-10-20T19:38:08;10.85;85.79
51878;SHT31;37911;51.526;11.536;2022-10-20T19:41:14;10.78;86.49
51878;SHT31;37911;51.526;11.536;2022-10-20T19:44:18;10.72;86.73
51878;SHT31;37911;51.526;11.536;2022-10-20T19:47:24;10.71;87.01